Time;durP1;ratioP1;P1;durP2;ratioP2;P2;SDS_P1;SDS_P2;PMS_P1;PMS_P2;Temp;Humidity;BMP_temperature;BMP_pressure;BME280_temperature;BME280_humidity;BME280_pressure;Samples;Min_cycle;Max_cycle;Signal;HPM_P1;HPM_P2
2022/01/23 00:02:28;;;;;;;13.57;3.47;;;5.50;99.90;;;;;;4893762;29;20059;-86
2022/01/23 00:04:54;;;;;;;11.38;3.20;;;6.60;99.90;;;;;;4894266;29;20048;-85
2022/01/23 00:07:21;;;;;;;11.90;3.22;;;5.60;99.90;;;;;;4878472;29;20063;-85
2022/01/23 00:09:47;;;;;;;13.45;3.33;;;6.20;99.90;;;;;;4894128;29;20056;-85
2022/01/23 00:12:17;;;;;;;9.73;4.22;;;5.50;99.90;;;;;;4894564;29;20048;-85
2022/01/23 00:17:33;;;;;;;11.95;3.90;;;5.50;99.90;;;;;;4892407;29;20054;-85
2022/01/23 00:20:01;;;;;;;13.98;3.75;;;5.60;99.90;;;;;;4894795;29;21114;-86
2022/01/23 00:22:38;;;;;;;15.13;3.88;;;5.90;99.90;;;;;;4893475;29;20052;-86
2022/01/23 00:30:34;;;;;;;10.65;3.33;;;5.60;99.90;;;;;;4893362;29;20138;-85
2022/01/23 00:33:02;;;;;;;15.73;3.30;;;5.60;99.90;;;;;;4894053;29;20176;-86
2022/01/23 00:35:29;;;;;;;13.30;3.42;;;6.40;99.90;;;;;;4893489;29;20052;-86
2022/01/23 00:37:56;;;;;;;12.48;3.50;;;5.60;99.90;;;;;;4893448;29;20055;-86
2022/01/23 00:40:23;;;;;;;12.48;2.70;;;5.60;99.90;;;;;;4893600;29;20044;-86
2022/01/23 00:42:54;;;;;;;11.80;3.08;;;6.30;99.90;;;;;;4893661;29;20052;-86
2022/01/23 00:45:30;;;;;;;10.23;2.75;;;5.60;99.90;;;;;;4892591;29;20048;-86
2022/01/23 00:48:03;;;;;;;12.65;2.85;;;5.60;99.90;;;;;;4878202;29;20184;-86
2022/01/23 00:50:31;;;;;;;11.55;2.42;;;5.60;99.90;;;;;;4893519;29;20048;-86
2022/01/23 00:52:57;;;;;;;10.85;2.60;;;5.90;99.90;;;;;;4893200;29;20048;-85
2022/01/23 00:55:23;;;;;;;10.38;3.03;;;5.60;99.90;;;;;;4894183;29;20048;-85
2022/01/23 00:57:48;;;;;;;10.70;2.95;;;5.50;99.90;;;;;;4894199;29;20492;-85
2022/01/23 01:00:14;;;;;;;8.55;2.65;;;6.10;99.90;;;;;;4893117;29;20102;-85
2022/01/23 01:02:40;;;;;;;8.82;2.60;;;5.60;99.90;;;;;;4878030;29;20496;-86
2022/01/23 01:05:06;;;;;;;13.30;2.75;;;5.50;99.90;;;;;;4893201;29;20047;-86
2022/01/23 01:07:32;;;;;;;10.73;3.25;;;5.50;99.90;;;;;;4877285;29;20044;-85
2022/01/23 01:10:04;;;;;;;10.07;3.13;;;5.50;99.90;;;;;;4894297;29;20048;-85
2022/01/23 01:12:39;;;;;;;7.85;3.05;;;5.50;99.90;;;;;;4894085;29;20123;-85
2022/01/23 01:31:27;;;;;;;11.13;3.60;;;5.40;99.90;;;;;;4893183;29;20052;-85
2022/01/23 01:33:59;;;;;;;9.77;3.67;;;5.40;99.90;;;;;;4893176;29;20187;-86
2022/01/23 01:36:36;;;;;;;11.85;4.03;;;5.40;99.90;;;;;;4893188;29;20052;-85
2022/01/23 01:39:11;;;;;;;12.88;3.90;;;5.40;99.90;;;;;;4893787;29;20496;-86
2022/01/23 01:41:39;;;;;;;11.77;3.50;;;5.40;99.90;;;;;;4892204;29;20047;-86
2022/01/23 01:44:06;;;;;;;13.52;3.40;;;5.30;99.90;;;;;;4909683;29;20044;-86
2022/01/23 01:46:32;;;;;;;11.32;3.80;;;5.30;99.90;;;;;;4892796;29;20068;-85
2022/01/23 01:48:58;;;;;;;9.98;3.72;;;5.30;99.90;;;;;;4892777;29;20378;-86
2022/01/23 01:51:35;;;;;;;10.60;3.47;;;5.60;99.90;;;;;;4893153;29;20093;-86
2022/01/23 01:54:09;;;;;;;13.02;4.10;;;5.30;99.90;;;;;;4895230;29;20512;-86
2022/01/23 01:56:46;;;;;;;14.18;3.72;;;5.30;99.90;;;;;;4896675;29;20059;-86
2022/01/23 02:09:42;;;;;;;11.68;4.45;;;5.10;99.90;;;;;;4896098;29;20119;-86
2022/01/23 02:17:16;;;;;;;19.30;4.97;;;5.40;99.90;;;;;;4895473;29;20052;-86
2022/01/23 02:22:48;;;;;;;13.07;5.10;;;5.40;99.90;;;;;;4896637;29;20067;-87
2022/01/23 02:57:32;;;;;;;11.95;5.22;;;5.30;99.90;;;;;;4876591;29;20092;-86
2022/01/23 02:59:58;;;;;;;17.58;5.22;;;5.30;99.90;;;;;;4891723;29;20053;-86
2022/01/23 03:02:34;;;;;;;12.18;4.80;;;5.40;99.90;;;;;;4876413;29;20421;-86
2022/01/23 03:05:12;;;;;;;14.25;4.60;;;5.30;99.90;;;;;;4876449;29;20052;-86
2022/01/23 03:07:55;;;;;;;18.13;5.53;;;5.40;99.90;;;;;;4876523;29;20123;-87
2022/01/23 03:10:36;;;;;;;12.68;4.68;;;5.40;99.90;;;;;;4876803;29;20513;-86
2022/01/23 03:26:22;;;;;;;13.88;5.20;;;5.40;99.90;;;;;;4876902;29;20049;-87
2022/01/23 03:34:12;;;;;;;13.40;5.22;;;5.40;99.90;;;;;;4876024;29;20056;-86
2022/01/23 03:36:38;;;;;;;11.65;5.20;;;5.40;99.90;;;;;;4876061;29;20047;-86
2022/01/23 03:39:09;;;;;;;13.07;4.97;;;5.40;99.90;;;;;;4876375;29;20053;-86
2022/01/23 03:41:36;;;;;;;17.55;5.15;;;6.40;99.90;;;;;;4876110;29;20128;-86
2022/01/23 03:44:05;;;;;;;8.73;4.93;;;6.20;99.90;;;;;;4860771;29;20088;-86
2022/01/23 03:46:49;;;;;;;13.27;4.63;;;5.40;99.90;;;;;;4875634;29;20059;-86
2022/01/23 03:49:31;;;;;;;14.50;4.88;;;5.40;99.90;;;;;;4876223;29;20055;-86
2022/01/23 03:52:16;;;;;;;11.07;4.82;;;5.20;99.90;;;;;;4860699;29;20040;-86
2022/01/23 03:54:42;;;;;;;11.05;4.75;;;5.50;99.90;;;;;;4875921;29;20392;-86
2022/01/23 03:57:08;;;;;;;15.50;5.00;;;4.40;99.90;;;;;;4861147;29;20195;-86
2022/01/23 03:59:41;;;;;;;11.32;4.65;;;6.20;99.90;;;;;;4860527;29;20052;-86
2022/01/23 04:02:10;;;;;;;13.30;4.97;;;5.70;99.90;;;;;;4875032;29;20071;-86
2022/01/23 04:04:42;;;;;;;14.85;5.20;;;5.50;99.90;;;;;;4860963;29;20075;-86
2022/01/23 04:07:13;;;;;;;15.18;5.28;;;6.10;99.90;;;;;;4875290;29;20041;-86
2022/01/23 04:09:40;;;;;;;13.88;5.05;;;5.50;99.90;;;;;;4875848;29;20053;-86
2022/01/23 04:12:30;;;;;;;16.23;4.50;;;5.90;99.90;;;;;;4876276;29;20076;-86
2022/01/23 04:15:08;;;;;;;16.52;5.00;;;5.50;99.90;;;;;;4861233;29;20087;-86
2022/01/23 04:20:38;;;;;;;13.68;4.72;;;6.20;99.90;;;;;;4875621;29;19994;-86
2022/01/23 04:46:04;;;;;;;15.73;5.18;;;5.40;99.90;;;;;;4886300;29;20404;-86
2022/01/23 04:49:05;;;;;;;17.45;5.22;;;5.40;99.90;;;;;;4893589;29;20064;-86
2022/01/23 04:59:40;;;;;;;11.82;5.72;;;6.00;99.90;;;;;;4893287;29;20110;-86
2022/01/23 05:02:33;;;;;;;12.55;6.15;;;5.40;99.90;;;;;;4893908;29;20165;-84
2022/01/23 05:04:54;;;;;;;14.73;5.57;;;5.40;99.90;;;;;;4893703;29;20243;-85
2022/01/23 05:07:25;;;;;;;13.93;5.72;;;5.40;99.90;;;;;;4893014;29;20048;-85
2022/01/23 05:09:51;;;;;;;10.43;6.13;;;5.40;99.90;;;;;;4878733;29;20059;-85
2022/01/23 05:12:24;;;;;;;15.05;5.07;;;5.40;99.90;;;;;;4892405;29;20048;-85
2022/01/23 05:14:51;;;;;;;10.90;5.05;;;5.40;99.90;;;;;;4893867;29;20052;-85
2022/01/23 05:17:18;;;;;;;11.65;4.93;;;5.40;99.90;;;;;;4893029;29;20052;-85
2022/01/23 05:19:44;;;;;;;9.77;4.80;;;5.40;99.90;;;;;;4893587;29;20103;-85
2022/01/23 05:24:50;;;;;;;11.07;5.18;;;5.70;99.90;;;;;;4894174;29;20500;-86
2022/01/23 05:27:16;;;;;;;14.65;5.22;;;5.50;99.90;;;;;;4892989;29;20128;-85
2022/01/23 05:29:42;;;;;;;10.88;5.38;;;5.50;99.90;;;;;;4896651;29;20130;-86
2022/01/23 05:32:14;;;;;;;11.55;4.65;;;5.50;99.90;;;;;;4897279;29;20051;-85
2022/01/23 05:34:44;;;;;;;13.00;5.35;;;5.40;99.90;;;;;;4881873;29;20139;-85
2022/01/23 05:37:12;;;;;;;17.42;5.40;;;5.50;99.90;;;;;;4896555;29;20059;-85
2022/01/23 05:39:47;;;;;;;10.85;5.35;;;5.50;99.90;;;;;;4896946;29;20052;-86
2022/01/23 05:42:12;;;;;;;9.32;5.13;;;5.50;99.90;;;;;;4880837;29;20079;-85
2022/01/23 05:44:42;;;;;;;13.75;5.25;;;5.70;99.90;;;;;;4897512;29;20036;-85
2022/01/23 05:47:09;;;;;;;10.80;5.50;;;5.50;99.90;;;;;;4896139;29;20052;-86
2022/01/23 05:49:35;;;;;;;17.27;5.32;;;5.90;99.90;;;;;;4897175;29;20052;-85
2022/01/23 05:52:02;;;;;;;11.82;5.45;;;5.50;99.90;;;;;;4896379;29;20059;-85
2022/01/23 05:54:28;;;;;;;17.45;6.60;;;5.50;99.90;;;;;;4896288;29;20059;-85
2022/01/23 05:56:53;;;;;;;15.68;6.20;;;5.90;99.90;;;;;;4896839;29;20044;-85
2022/01/23 05:59:21;;;;;;;18.42;6.22;;;5.50;99.90;;;;;;4897007;29;20040;-85
2022/01/23 06:01:51;;;;;;;15.50;5.75;;;5.90;99.90;;;;;;4895563;29;20040;-86
2022/01/23 06:04:24;;;;;;;10.32;5.50;;;5.60;99.90;;;;;;4897058;29;20448;-86
2022/01/23 06:06:50;;;;;;;11.55;6.10;;;5.50;99.90;;;;;;4899438;29;20070;-86
2022/01/23 06:09:19;;;;;;;10.60;5.63;;;6.00;99.90;;;;;;4899373;29;20077;-86
2022/01/23 06:11:45;;;;;;;20.40;6.20;;;5.40;99.90;;;;;;4899365;29;20036;-86
2022/01/23 06:14:11;;;;;;;13.25;5.25;;;5.70;99.90;;;;;;4900090;29;20087;-86
2022/01/23 06:16:39;;;;;;;12.10;5.40;;;6.10;99.90;;;;;;4898661;29;20130;-86
2022/01/23 06:19:05;;;;;;;12.57;5.57;;;6.20;99.90;;;;;;4900222;29;20058;-85
2022/01/23 06:21:31;;;;;;;10.93;5.05;;;5.20;99.90;;;;;;4898997;29;20130;-85
2022/01/23 06:24:10;;;;;;;9.82;4.75;;;6.00;99.90;;;;;;4898667;29;20403;-86
2022/01/23 06:26:43;;;;;;;15.10;5.90;;;5.40;99.90;;;;;;4899489;29;20043;-85
2022/01/23 06:29:09;;;;;;;13.35;5.70;;;5.40;99.90;;;;;;4899286;29;20054;-85
2022/01/23 06:31:35;;;;;;;11.68;5.63;;;5.40;99.90;;;;;;4898829;29;20047;-85
2022/01/23 06:34:01;;;;;;;19.77;6.32;;;5.40;99.90;;;;;;4899492;29;20055;-86
2022/01/23 06:36:27;;;;;;;13.73;6.43;;;5.30;99.90;;;;;;4894371;29;20100;-85
2022/01/23 06:38:56;;;;;;;10.50;5.72;;;5.30;99.90;;;;;;4911843;29;20051;-85
2022/01/23 06:41:22;;;;;;;13.40;5.88;;;5.30;99.90;;;;;;4894962;29;20048;-85
2022/01/23 06:43:47;;;;;;;12.57;5.78;;;5.30;99.90;;;;;;4895007;29;20071;-85
2022/01/23 06:46:13;;;;;;;13.65;5.93;;;6.20;99.90;;;;;;4896178;29;20293;-85
2022/01/23 06:48:39;;;;;;;14.90;5.88;;;5.60;99.90;;;;;;4880097;29;20052;-85
2022/01/23 06:51:13;;;;;;;16.83;6.57;;;5.30;99.90;;;;;;4879638;29;20052;-85
2022/01/23 06:53:39;;;;;;;10.98;6.10;;;5.40;99.90;;;;;;4895529;29;20044;-85
2022/01/23 06:56:05;;;;;;;12.00;6.28;;;5.80;99.90;;;;;;4896202;29;20048;-85
2022/01/23 06:58:31;;;;;;;10.90;6.28;;;5.40;99.90;;;;;;4910195;29;20048;-85
2022/01/23 07:01:07;;;;;;;14.85;5.80;;;5.60;99.90;;;;;;4911465;29;20044;-84
2022/01/23 07:03:34;;;;;;;10.82;6.30;;;5.30;99.90;;;;;;4895559;29;20580;-82
2022/01/23 07:06:00;;;;;;;13.50;6.40;;;5.30;99.90;;;;;;4894590;29;20539;-85
2022/01/23 07:08:35;;;;;;;14.77;7.03;;;6.20;99.90;;;;;;4897238;29;20056;-86
2022/01/23 07:11:04;;;;;;;17.67;7.32;;;6.10;99.90;;;;;;4891622;29;20040;-86
2022/01/23 07:13:42;;;;;;;18.40;7.38;;;5.30;99.90;;;;;;4904692;29;20559;-85
2022/01/23 07:16:07;;;;;;;18.92;7.22;;;6.40;99.90;;;;;;4890330;29;20043;-85
2022/01/23 07:18:33;;;;;;;14.30;7.28;;;6.50;99.90;;;;;;4888382;29;20056;-84
2022/01/23 07:21:05;;;;;;;17.75;8.10;;;5.60;99.90;;;;;;4887414;29;20552;-86
2022/01/23 07:23:37;;;;;;;16.25;7.97;;;5.60;99.90;;;;;;4903809;29;20059;-85
2022/01/23 07:26:03;;;;;;;16.50;7.60;;;5.20;99.90;;;;;;4909676;29;20542;-84
2022/01/23 07:28:38;;;;;;;14.25;7.70;;;5.30;99.90;;;;;;4904400;29;20097;-81
2022/01/23 07:31:05;;;;;;;14.77;7.78;;;5.30;99.90;;;;;;4902679;29;20044;-83
2022/01/23 07:33:33;;;;;;;17.55;8.05;;;6.20;99.90;;;;;;4902273;29;20419;-79
2022/01/23 07:36:01;;;;;;;13.13;7.25;;;5.30;99.90;;;;;;4921363;29;20075;-83
2022/01/23 07:38:27;;;;;;;15.40;7.35;;;5.30;99.90;;;;;;4902772;29;20134;-87
2022/01/23 07:40:53;;;;;;;14.80;6.72;;;5.20;99.90;;;;;;4902990;29;20179;-86
2022/01/23 07:43:18;;;;;;;12.73;6.47;;;5.20;99.90;;;;;;4889248;29;20035;-86
2022/01/23 07:45:44;;;;;;;13.88;7.10;;;5.40;99.90;;;;;;4903335;29;20059;-87
2022/01/23 07:48:21;;;;;;;17.33;7.18;;;5.30;99.90;;;;;;4916563;29;20051;-87
2022/01/23 07:50:47;;;;;;;16.27;7.75;;;4.80;99.90;;;;;;4903518;29;20118;-84
2022/01/23 07:53:15;;;;;;;17.67;7.72;;;5.20;99.90;;;;;;4888511;29;20491;-85
2022/01/23 07:56:02;;;;;;;;;;;;;;;;;;;;;
2022/01/23 07:58:41;;;;;;;12.63;6.85;;;5.20;99.90;;;;;;4902113;29;20446;-87
2022/01/23 08:01:07;;;;;;;11.45;6.97;;;5.10;99.90;;;;;;4886014;29;20129;-86
2022/01/23 08:03:32;;;;;;;12.63;7.50;;;5.20;99.90;;;;;;4896959;29;20119;-85
2022/01/23 08:05:58;;;;;;;12.43;6.35;;;6.30;99.90;;;;;;4897244;29;20044;-85
2022/01/23 08:08:29;;;;;;;11.90;6.85;;;5.60;99.90;;;;;;4896165;29;20082;-87
2022/01/23 08:10:58;;;;;;;14.82;7.28;;;5.60;99.90;;;;;;4901914;29;20054;-86
2022/01/23 08:13:41;;;;;;;14.43;7.28;;;5.30;99.90;;;;;;4891629;29;20188;-86
2022/01/23 08:17:00;;;;;;;12.13;5.97;;;5.40;99.90;;;;;;4876509;29;20448;-85
2022/01/23 08:19:28;;;;;;;11.43;6.18;;;5.30;99.90;;;;;;4884228;29;20063;-86
2022/01/23 08:21:54;;;;;;;13.82;7.00;;;5.20;99.90;;;;;;4890401;29;20048;-85
2022/01/23 08:24:19;;;;;;;17.23;6.88;;;5.50;99.90;;;;;;4907374;29;20055;-85
2022/01/23 08:26:45;;;;;;;13.60;6.50;;;6.30;99.90;;;;;;4907533;29;20052;-85
2022/01/23 08:29:11;;;;;;;12.82;5.88;;;5.30;99.90;;;;;;4905137;29;20119;-83
2022/01/23 08:31:37;;;;;;;12.43;5.95;;;5.30;99.90;;;;;;4891627;29;20052;-85
2022/01/23 08:34:03;;;;;;;10.15;6.43;;;5.30;99.90;;;;;;4891848;29;20051;-86
2022/01/23 08:36:31;;;;;;;13.32;6.25;;;5.40;99.90;;;;;;4883067;29;20441;-84
2022/01/23 08:39:06;;;;;;;15.15;5.72;;;5.30;99.90;;;;;;4892133;29;20067;-85
2022/01/23 08:41:49;;;;;;;12.18;6.60;;;5.30;99.90;;;;;;4891880;29;20090;-85
2022/01/23 08:44:20;;;;;;;13.10;5.90;;;5.50;99.90;;;;;;4891481;29;20087;-84
2022/01/23 08:46:46;;;;;;;12.15;5.10;;;5.20;99.90;;;;;;4875673;29;20056;-85
2022/01/23 08:49:13;;;;;;;9.77;5.22;;;5.20;99.90;;;;;;4892330;29;20063;-84
2022/01/23 08:51:39;;;;;;;13.23;5.28;;;6.10;99.90;;;;;;4891182;29;20055;-85
2022/01/23 08:54:05;;;;;;;10.70;5.82;;;6.00;99.90;;;;;;4892445;29;20356;-84
2022/01/23 08:56:38;;;;;;;11.77;5.78;;;5.20;99.90;;;;;;4876067;29;20131;-85
2022/01/23 08:59:04;;;;;;;11.55;6.22;;;6.10;99.90;;;;;;4889527;29;20044;-84
2022/01/23 09:01:42;;;;;;;10.15;5.43;;;5.10;99.90;;;;;;4891110;29;20056;-84
2022/01/23 09:04:09;;;;;;;9.05;5.15;;;6.00;99.90;;;;;;4892465;29;20190;-85
2022/01/23 09:06:45;;;;;;;9.30;5.13;;;5.20;99.90;;;;;;4903349;29;20052;-84
2022/01/23 09:09:17;;;;;;;7.72;4.35;;;5.90;99.90;;;;;;4914442;29;20064;-84
2022/01/23 09:11:56;;;;;;;10.05;4.30;;;5.30;99.90;;;;;;4897494;29;20090;-85
2022/01/23 09:14:23;;;;;;;8.20;4.10;;;5.40;99.90;;;;;;4898497;29;20154;-84
2022/01/23 09:16:50;;;;;;;7.70;4.03;;;6.20;99.90;;;;;;4913453;29;20499;-85
2022/01/23 09:19:39;;;;;;;7.97;3.83;;;5.60;99.90;;;;;;4897447;29;20047;-85
2022/01/23 09:22:15;;;;;;;7.13;3.97;;;5.70;99.90;;;;;;4914213;29;20134;-85
2022/01/23 09:24:42;;;;;;;6.53;3.38;;;5.80;99.90;;;;;;4899068;29;20389;-85
2022/01/23 09:27:18;;;;;;;6.30;3.40;;;5.20;99.90;;;;;;4913299;29;20102;-85
2022/01/23 09:29:54;;;;;;;8.93;3.67;;;6.00;99.90;;;;;;4899125;29;20048;-85
2022/01/23 09:32:24;;;;;;;6.43;3.55;;;6.10;99.90;;;;;;4897009;29;20087;-83
2022/01/23 09:34:51;;;;;;;6.43;3.40;;;6.10;99.90;;;;;;4914053;29;20551;-83
2022/01/23 09:37:18;;;;;;;7.47;3.90;;;6.50;99.90;;;;;;4913214;29;20102;-85
2022/01/23 09:39:58;;;;;;;7.95;4.30;;;6.20;99.90;;;;;;4891768;29;20056;-86
2022/01/23 09:42:33;;;;;;;8.10;4.35;;;6.10;99.90;;;;;;4897742;29;20086;-85
2022/01/23 09:45:03;;;;;;;8.82;4.15;;;6.50;99.90;;;;;;4899201;29;20159;-86
2022/01/23 09:47:30;;;;;;;7.40;4.57;;;7.10;99.90;;;;;;4911471;29;20055;-85
2022/01/23 09:49:57;;;;;;;9.07;4.40;;;6.70;99.90;;;;;;4902693;29;20451;-84
2022/01/23 09:52:24;;;;;;;8.05;4.28;;;7.00;99.90;;;;;;4887156;29;20040;-84
2022/01/23 09:55:01;;;;;;;7.57;4.30;;;6.40;99.90;;;;;;4908746;29;20052;-84
2022/01/23 09:57:30;;;;;;;9.35;4.50;;;6.40;99.90;;;;;;4895117;29;20121;-85
2022/01/23 09:59:57;;;;;;;8.00;4.20;;;6.40;99.90;;;;;;4893885;29;20511;-85
2022/01/23 10:02:29;;;;;;;8.48;4.07;;;6.40;99.90;;;;;;4914691;29;20079;-84
2022/01/23 10:04:56;;;;;;;6.60;3.63;;;6.50;99.90;;;;;;4915805;29;20054;-84
2022/01/23 10:07:22;;;;;;;7.70;3.88;;;6.50;99.90;;;;;;4914907;29;20054;-84
2022/01/23 10:09:54;;;;;;;6.78;3.83;;;6.70;99.90;;;;;;4931753;29;20050;-85
2022/01/23 10:12:26;;;;;;;6.13;2.65;;;6.50;99.90;;;;;;4915586;29;20058;-85
2022/01/23 10:14:54;;;;;;;7.78;3.30;;;7.20;99.90;;;;;;4913972;29;20042;-84
2022/01/23 10:17:19;;;;;;;5.47;2.45;;;6.60;99.90;;;;;;4929238;29;20091;-84
2022/01/23 10:19:46;;;;;;;4.68;2.45;;;6.60;99.90;;;;;;4932352;29;20079;-86
2022/01/23 10:22:14;;;;;;;3.13;1.60;;;6.90;99.90;;;;;;4930540;29;20051;-85
2022/01/23 10:24:40;;;;;;;2.20;1.35;;;7.10;99.90;;;;;;4932052;29;20061;-85
2022/01/23 10:27:06;;;;;;;2.15;0.50;;;6.70;99.90;;;;;;4912170;29;20491;-85
2022/01/23 10:29:37;;;;;;;2.40;0.80;;;6.70;99.90;;;;;;4886573;29;20047;-85
2022/01/23 10:32:18;;;;;;;3.08;1.48;;;6.80;99.90;;;;;;4884932;29;20048;-84
2022/01/23 10:34:51;;;;;;;4.68;2.50;;;6.80;99.90;;;;;;4887787;29;20048;-86
2022/01/23 10:37:28;;;;;;;5.03;2.22;;;6.80;99.90;;;;;;4886635;29;20047;-85
2022/01/23 10:39:54;;;;;;;5.13;2.30;;;7.50;99.90;;;;;;4889689;29;20447;-85
2022/01/23 10:50:44;;;;;;;3.85;1.90;;;7.70;99.90;;;;;;4903225;29;20058;-85
2022/01/23 10:53:10;;;;;;;5.03;1.92;;;6.80;99.90;;;;;;4889744;29;20047;-85
2022/01/23 10:55:38;;;;;;;3.22;1.45;;;7.40;99.90;;;;;;4889322;29;20138;-85
2022/01/23 10:58:06;;;;;;;3.55;1.42;;;6.90;99.90;;;;;;4902384;29;20132;-85
2022/01/23 11:00:36;;;;;;;1.80;0.75;;;6.80;99.90;;;;;;4889193;29;20140;-85
2022/01/23 11:03:20;;;;;;;1.80;1.02;;;6.90;99.90;;;;;;4889021;29;20047;-85
2022/01/23 11:05:48;;;;;;;2.70;1.30;;;6.90;99.90;;;;;;4886813;29;20059;-84
2022/01/23 11:08:24;;;;;;;2.78;1.40;;;7.00;99.90;;;;;;4896108;29;20048;-84
2022/01/23 11:11:06;;;;;;;5.15;1.67;;;6.90;99.90;;;;;;4910725;29;20044;-85
2022/01/23 11:19:16;;;;;;;3.40;2.10;;;7.20;99.90;;;;;;4908629;29;20052;-84
2022/01/23 11:21:42;;;;;;;2.85;1.77;;;6.90;99.90;;;;;;4911025;29;20043;-84
2022/01/23 11:24:08;;;;;;;3.33;1.90;;;7.40;99.90;;;;;;4897598;29;20087;-84
2022/01/23 11:26:33;;;;;;;4.63;1.75;;;7.50;99.90;;;;;;4910456;29;20078;-84
2022/01/23 11:29:09;;;;;;;3.72;1.88;;;7.00;99.90;;;;;;4921681;29;20399;-84
2022/01/23 11:31:37;;;;;;;3.03;1.80;;;7.00;99.90;;;;;;4895823;29;20047;-84
2022/01/23 11:34:07;;;;;;;3.55;1.63;;;7.00;99.90;;;;;;4896600;29;20580;-84
2022/01/23 11:36:34;;;;;;;4.50;1.77;;;7.00;99.90;;;;;;4892584;29;20044;-84
2022/01/23 11:39:08;;;;;;;4.43;1.65;;;7.30;99.90;;;;;;4910830;29;20106;-84
2022/01/23 11:55:38;;;;;;;3.08;1.20;;;7.80;99.90;;;;;;4911585;29;20066;-85
2022/01/23 11:58:05;;;;;;;4.15;1.42;;;7.20;99.90;;;;;;4894467;29;20407;-85
2022/01/23 12:00:34;;;;;;;4.35;1.17;;;7.40;99.90;;;;;;4886168;29;20056;-85
2022/01/23 12:03:17;;;;;;;3.53;1.42;;;7.30;99.90;;;;;;4903198;29;20059;-85
2022/01/23 12:05:48;;;;;;;3.63;1.40;;;7.80;99.90;;;;;;4903346;29;20063;-86
2022/01/23 12:08:27;;;;;;;1.60;1.13;;;7.20;99.90;;;;;;4901637;29;20046;-85
2022/01/23 12:11:34;;;;;;;4.28;1.10;;;7.20;99.90;;;;;;4904223;29;20056;-85
2022/01/23 12:16:58;;;;;;;2.80;1.10;;;7.80;99.90;;;;;;4902432;29;20544;-85
2022/01/23 12:19:26;;;;;;;7.53;1.30;;;7.70;99.90;;;;;;4887297;29;20047;-85
2022/01/23 12:21:55;;;;;;;5.03;1.30;;;7.30;99.90;;;;;;4881013;29;20131;-84
2022/01/23 12:24:23;;;;;;;3.15;1.20;;;7.40;99.90;;;;;;4878600;29;20056;-85
2022/01/23 12:27:32;;;;;;;3.17;1.27;;;7.40;99.90;;;;;;4894004;29;20083;-86
2022/01/23 12:38:34;;;;;;;3.05;1.77;;;7.40;99.90;;;;;;4849347;29;20052;-86
2022/01/23 12:41:51;;;;;;;4.10;1.67;;;8.50;99.90;;;;;;4874424;29;20052;-86
2022/01/23 12:44:33;;;;;;;2.88;1.40;;;7.40;99.90;;;;;;4873277;29;20060;-85
2022/01/23 12:47:01;;;;;;;5.88;1.90;;;8.50;99.90;;;;;;4873239;29;20632;-85
2022/01/23 12:53:46;;;;;;;5.93;2.22;;;7.80;99.90;;;;;;4839041;29;20047;-88
2022/01/23 12:57:09;;;;;;;4.82;1.48;;;7.40;99.90;;;;;;4895784;29;20110;-88
2022/01/23 13:00:06;;;;;;;4.28;1.55;;;7.20;99.90;;;;;;4914069;29;20066;-88
2022/01/23 13:02:53;;;;;;;4.07;1.75;;;8.20;99.90;;;;;;4900096;29;20055;-88
2022/01/23 13:05:47;;;;;;;4.25;1.70;;;7.00;99.90;;;;;;4897711;29;20059;-88
2022/01/23 13:08:45;;;;;;;4.25;1.83;;;7.30;99.90;;;;;;4870527;29;20056;-89
2022/01/23 13:13:06;;;;;;;;;;;;;;;;;;;;;
2022/01/23 13:31:41;;;;;;;5.32;1.50;;;7.30;99.90;;;;;;4911905;29;20587;-85
2022/01/23 13:34:35;;;;;;;3.97;1.83;;;7.80;99.90;;;;;;4912726;29;20125;-85
2022/01/23 13:37:08;;;;;;;3.17;1.40;;;7.30;99.90;;;;;;4911723;29;20044;-85
2022/01/23 13:39:38;;;;;;;;;;;7.30;99.90;;;;;;4896498;29;20094;-85
2022/01/23 13:42:18;;;;;;;3.63;1.50;;;7.20;99.90;;;;;;4911705;29;19974;-85
2022/01/23 13:51:17;;;;;;;4.95;1.98;;;7.20;99.90;;;;;;4914592;29;20403;-85
2022/01/23 13:53:50;;;;;;;5.40;2.05;;;7.10;99.90;;;;;;4915078;29;20131;-85
2022/01/23 13:59:51;;;;;;;4.47;2.45;;;7.10;99.90;;;;;;4896304;29;20119;-85
2022/01/23 14:03:11;;;;;;;3.63;2.05;;;7.10;99.90;;;;;;4883335;29;20487;-85
2022/01/23 14:05:37;;;;;;;5.30;2.83;;;6.90;99.90;;;;;;4896750;29;20142;-85
2022/01/23 14:08:05;;;;;;;4.57;2.22;;;7.20;99.90;;;;;;4880429;29;20055;-84
2022/01/23 14:19:12;;;;;;;4.80;2.75;;;7.00;99.90;;;;;;4866053;29;20048;-85
2022/01/23 14:26:47;;;;;;;5.95;3.20;;;6.90;99.90;;;;;;4828506;29;20501;-87
2022/01/23 14:33:57;;;;;;;7.78;3.85;;;7.20;99.90;;;;;;4892416;29;20470;-85
2022/01/23 14:36:47;;;;;;;8.80;3.03;;;6.90;99.90;;;;;;4851466;29;20056;-84
2022/01/23 14:39:13;;;;;;;6.78;3.30;;;7.00;99.90;;;;;;4895662;29;20060;-84
2022/01/23 15:31:33;;;;;;;8.03;5.13;;;6.60;99.90;;;;;;3093276;26;20352;-86
2022/01/23 15:34:24;;;;;;;7.97;4.65;;;6.50;99.90;;;;;;4850467;29;20048;-85
2022/01/23 15:37:04;;;;;;;9.32;4.53;;;5.90;99.90;;;;;;4929653;29;20079;-84
2022/01/23 15:43:20;;;;;;;10.32;3.83;;;6.50;99.90;;;;;;4895537;29;20126;-84
2022/01/23 15:45:45;;;;;;;6.63;3.33;;;6.50;99.90;;;;;;4912576;29;20468;-85
2022/01/23 15:48:17;;;;;;;8.40;2.95;;;6.60;99.90;;;;;;4913571;29;20079;-85
2022/01/23 15:50:43;;;;;;;7.90;2.45;;;6.80;99.90;;;;;;4912903;29;20043;-85
2022/01/23 15:53:12;;;;;;;7.82;2.67;;;6.40;99.90;;;;;;4897239;29;20047;-85
2022/01/23 15:55:44;;;;;;;8.70;3.63;;;7.10;99.90;;;;;;4891522;29;20127;-85
2022/01/23 15:58:09;;;;;;;7.63;3.38;;;6.50;99.90;;;;;;4895731;29;20104;-85
2022/01/23 16:00:38;;;;;;;6.45;3.05;;;6.40;99.90;;;;;;4893481;29;20536;-86
2022/01/23 16:03:04;;;;;;;7.47;3.47;;;6.40;99.90;;;;;;4878430;29;20056;-85
2022/01/23 16:05:30;;;;;;;9.43;3.58;;;7.00;99.90;;;;;;4893778;29;20044;-85
2022/01/23 16:07:55;;;;;;;6.20;3.00;;;6.40;99.90;;;;;;4894167;29;20186;-85
2022/01/23 16:10:21;;;;;;;8.20;3.38;;;7.20;99.90;;;;;;4879197;29;20138;-84
2022/01/23 16:12:47;;;;;;;6.82;3.22;;;7.10;99.90;;;;;;4878401;29;20043;-85
2022/01/23 16:15:15;;;;;;;7.93;2.53;;;6.30;99.90;;;;;;4894362;29;20131;-85
2022/01/23 16:17:41;;;;;;;10.43;2.67;;;6.40;99.90;;;;;;4895543;29;20348;-84
2022/01/23 16:20:09;;;;;;;9.38;2.45;;;6.30;99.90;;;;;;4877824;29;20083;-85
2022/01/23 16:22:36;;;;;;;5.53;2.70;;;6.30;99.90;;;;;;4894035;29;20545;-84
2022/01/23 16:25:03;;;;;;;4.10;2.05;;;7.00;99.90;;;;;;4878508;29;20050;-84
2022/01/23 16:40:06;;;;;;;5.80;2.40;;;6.10;99.90;;;;;;4872352;29;20093;-86
2022/01/23 16:43:09;;;;;;;6.75;2.75;;;6.20;99.90;;;;;;4838374;29;20056;-86
2022/01/23 16:49:20;;;;;;;6.45;3.05;;;6.00;99.90;;;;;;4835608;29;20180;-85
2022/01/23 16:52:17;;;;;;;8.88;3.70;;;6.90;99.90;;;;;;4875122;29;20556;-85
2022/01/23 16:54:45;;;;;;;4.90;3.00;;;6.40;99.90;;;;;;4859468;29;20481;-85
2022/01/23 16:57:18;;;;;;;5.00;3.03;;;6.50;99.90;;;;;;4859575;29;20059;-85
2022/01/23 17:00:02;;;;;;;7.38;3.05;;;6.40;99.90;;;;;;4861960;29;20135;-84
2022/01/23 17:02:28;;;;;;;8.95;3.85;;;6.20;99.90;;;;;;4859359;29;20048;-85
2022/01/23 17:04:56;;;;;;;9.43;3.83;;;6.20;99.90;;;;;;4860229;29;20107;-84
2022/01/23 17:07:27;;;;;;;8.32;4.10;;;6.20;99.90;;;;;;4874951;29;20044;-84
2022/01/23 17:10:05;;;;;;;10.30;3.67;;;5.90;99.90;;;;;;4874659;29;20087;-84
2022/01/23 17:12:31;;;;;;;8.88;3.70;;;6.10;99.90;;;;;;4875648;29;20053;-87
2022/01/23 17:14:58;;;;;;;9.93;4.28;;;6.20;99.90;;;;;;4874926;29;20076;-85
2022/01/23 17:17:24;;;;;;;7.72;3.90;;;6.20;99.90;;;;;;4873870;29;20059;-84
2022/01/23 17:19:52;;;;;;;9.45;4.60;;;6.50;99.90;;;;;;4875085;29;20053;-84
2022/01/23 17:22:42;;;;;;;11.88;5.43;;;6.20;99.90;;;;;;4874583;29;20071;-86
2022/01/23 17:25:26;;;;;;;7.28;4.25;;;6.10;99.90;;;;;;4879304;29;20045;-85
2022/01/23 17:28:00;;;;;;;13.63;4.38;;;6.20;99.90;;;;;;4879117;29;20040;-85
2022/01/23 17:34:22;;;;;;;9.73;3.70;;;6.20;99.90;;;;;;4862629;29;20067;-87
2022/01/23 17:37:43;;;;;;;8.40;3.90;;;7.00;99.90;;;;;;4897679;29;20788;-85
2022/01/23 17:40:10;;;;;;;7.38;3.78;;;6.00;99.90;;;;;;4884815;29;20147;-86
2022/01/23 17:42:43;;;;;;;11.70;4.00;;;6.10;99.90;;;;;;4897067;29;20067;-86
2022/01/23 17:45:55;;;;;;;7.57;3.65;;;6.10;99.90;;;;;;4912584;29;20111;-85
2022/01/23 17:51:24;;;;;;;7.90;4.05;;;6.50;99.90;;;;;;4893111;29;20056;-86
2022/01/23 17:53:50;;;;;;;8.10;3.92;;;6.10;99.90;;;;;;4897353;29;20040;-85
2022/01/23 17:56:25;;;;;;;10.55;4.35;;;6.20;99.90;;;;;;4897199;29;20115;-84
2022/01/23 17:58:51;;;;;;;8.40;4.45;;;6.10;99.90;;;;;;4896529;29;20420;-84
2022/01/23 18:01:48;;;;;;;9.95;3.92;;;7.10;99.90;;;;;;4897203;29;20398;-87
2022/01/23 18:04:14;;;;;;;7.75;4.22;;;6.00;99.90;;;;;;4878972;29;20079;-84
2022/01/23 18:06:41;;;;;;;8.75;4.30;;;6.00;99.90;;;;;;4895442;29;20399;-84
2022/01/23 18:09:15;;;;;;;9.30;4.22;;;6.40;99.90;;;;;;4897057;29;20055;-84
2022/01/23 18:11:41;;;;;;;10.45;4.10;;;6.50;99.90;;;;;;4896487;29;20052;-83
2022/01/23 18:14:09;;;;;;;6.75;3.58;;;6.40;99.90;;;;;;4896590;29;20059;-84
2022/01/23 18:16:46;;;;;;;8.18;3.05;;;6.10;99.90;;;;;;4896436;29;20463;-84
2022/01/23 18:19:11;;;;;;;5.47;3.60;;;6.40;99.90;;;;;;4897949;29;20048;-85